Time;durP1;ratioP1;P1;durP2;ratioP2;P2;SDS_P1;SDS_P2;PMS_P1;PMS_P2;Temp;Humidity;BMP_temperature;BMP_pressure;BME280_temperature;BME280_humidity;BME280_pressure;Samples;Min_cycle;Max_cycle;Signal;HPM_P1;HPM_P2
2021/12/02 00:00:18;;;;;;;1.80;1.00;;;6.60;99.90;;;;;;5096221;28;20176;-63
2021/12/02 00:02:44;;;;;;;0.60;0.60;;;6.60;99.90;;;;;;5076458;28;20545;-64
2021/12/02 00:05:09;;;;;;;2.47;0.87;;;6.60;99.90;;;;;;5095656;28;20165;-64
2021/12/02 00:07:35;;;;;;;0.70;0.70;;;6.50;99.90;;;;;;5095492;28;20238;-63
2021/12/02 00:10:01;;;;;;;0.57;0.57;;;6.60;99.90;;;;;;5095089;28;20615;-64
2021/12/02 00:12:26;;;;;;;1.87;0.80;;;6.60;99.90;;;;;;5095707;28;20238;-64
2021/12/02 00:14:53;;;;;;;1.10;0.77;;;6.60;99.90;;;;;;5095283;28;20177;-63
2021/12/02 00:17:26;;;;;;;0.90;0.80;;;6.60;99.90;;;;;;5105211;28;20225;-64
2021/12/02 00:23:08;;;;;;;0.60;0.60;;;6.50;99.90;;;;;;5106892;28;20263;-67
2021/12/02 00:25:34;;;;;;;0.50;0.50;;;6.60;99.90;;;;;;5098606;28;20163;-65
2021/12/02 00:28:01;;;;;;;0.77;0.70;;;6.70;99.90;;;;;;5095579;28;20162;-64
2021/12/02 00:30:27;;;;;;;1.10;0.83;;;6.70;99.90;;;;;;5095513;28;20163;-64
2021/12/02 00:32:56;;;;;;;0.80;0.80;;;6.50;99.90;;;;;;5094730;28;20601;-64
2021/12/02 00:35:22;;;;;;;0.97;0.60;;;6.60;99.90;;;;;;5095505;28;20163;-63
2021/12/02 00:37:49;;;;;;;1.03;0.90;;;6.50;99.90;;;;;;5094415;28;20224;-63
2021/12/02 00:40:14;;;;;;;0.87;0.70;;;6.50;99.90;;;;;;5095481;28;20164;-64
2021/12/02 00:42:42;;;;;;;1.50;1.00;;;6.60;99.90;;;;;;5095692;28;20509;-63
2021/12/02 00:45:08;;;;;;;0.60;0.60;;;6.60;99.90;;;;;;5094933;28;20644;-64
2021/12/02 00:47:36;;;;;;;0.83;0.80;;;6.60;99.90;;;;;;5094940;28;20243;-64
2021/12/02 00:50:02;;;;;;;1.43;0.90;;;6.50;99.90;;;;;;5094789;28;20643;-64
2021/12/02 00:52:29;;;;;;;0.80;0.70;;;6.50;99.90;;;;;;5095308;28;20207;-64
2021/12/02 00:54:55;;;;;;;1.10;0.80;;;6.50;99.90;;;;;;5095298;28;20564;-63
2021/12/02 00:57:21;;;;;;;0.60;0.60;;;6.50;99.90;;;;;;5095764;28;20159;-64
2021/12/02 00:59:48;;;;;;;0.97;0.80;;;6.50;99.90;;;;;;5095148;28;20498;-65
2021/12/02 01:02:15;;;;;;;0.67;0.67;;;6.60;99.90;;;;;;5094483;28;20618;-66
2021/12/02 01:04:41;;;;;;;0.73;0.73;;;6.50;99.90;;;;;;5094711;28;20304;-63
2021/12/02 01:07:07;;;;;;;0.50;0.50;;;6.50;99.90;;;;;;5094882;28;20182;-64
2021/12/02 01:09:33;;;;;;;1.87;1.00;;;6.50;99.90;;;;;;5094858;28;20225;-65
2021/12/02 01:12:00;;;;;;;1.67;1.00;;;6.60;99.90;;;;;;5095438;28;20607;-63
2021/12/02 01:14:26;;;;;;;1.50;1.03;;;6.60;99.90;;;;;;5101066;28;20193;-67
2021/12/02 01:16:52;;;;;;;1.97;0.80;;;6.60;99.90;;;;;;5103960;28;20171;-64
2021/12/02 01:19:18;;;;;;;2.23;1.00;;;6.60;99.90;;;;;;5104555;28;20595;-66
2021/12/02 01:21:44;;;;;;;1.60;0.77;;;6.60;99.90;;;;;;5100420;28;20197;-64
2021/12/02 01:24:13;;;;;;;2.50;1.10;;;6.60;99.90;;;;;;5094820;28;20255;-65
2021/12/02 01:26:39;;;;;;;1.53;0.90;;;6.60;99.90;;;;;;5093971;28;20164;-65
2021/12/02 01:29:05;;;;;;;1.00;0.90;;;6.50;99.90;;;;;;5093964;28;20266;-64
2021/12/02 01:31:33;;;;;;;1.07;1.00;;;6.60;99.90;;;;;;5094779;28;20193;-66
2021/12/02 01:34:01;;;;;;;3.80;0.97;;;6.50;99.90;;;;;;5093763;28;20275;-63
2021/12/02 01:36:33;;;;;;;2.73;1.07;;;6.60;99.90;;;;;;5093758;28;20244;-64
2021/12/02 01:38:59;;;;;;;2.63;1.27;;;6.50;99.90;;;;;;5094500;28;20171;-63
2021/12/02 01:41:25;;;;;;;1.93;1.00;;;6.50;99.90;;;;;;5093915;28;20196;-64
2021/12/02 01:43:53;;;;;;;2.90;1.00;;;6.40;99.90;;;;;;5094412;28;20632;-63
2021/12/02 01:46:23;;;;;;;1.67;0.83;;;6.40;99.90;;;;;;5094631;28;20160;-63
2021/12/02 01:49:03;;;;;;;0.93;0.90;;;6.40;99.90;;;;;;5093869;28;20168;-65
2021/12/02 01:51:29;;;;;;;2.43;1.00;;;6.40;99.90;;;;;;5094322;28;20240;-65
2021/12/02 01:54:06;;;;;;;3.73;2.10;;;6.40;99.90;;;;;;5094231;28;20163;-65
2021/12/02 01:56:40;;;;;;;4.43;0.93;;;6.30;99.90;;;;;;5094002;28;20535;-64
2021/12/02 01:59:12;;;;;;;3.27;1.00;;;6.30;99.90;;;;;;5093377;28;20237;-65
2021/12/02 02:01:40;;;;;;;1.73;0.70;;;6.30;99.90;;;;;;5094326;28;20196;-64
2021/12/02 02:04:07;;;;;;;2.03;1.00;;;6.30;99.90;;;;;;5107899;28;20161;-65
2021/12/02 02:06:49;;;;;;;1.63;0.70;;;6.20;99.90;;;;;;5095394;28;20174;-63
2021/12/02 02:09:15;;;;;;;2.90;0.80;;;6.20;99.90;;;;;;5094752;28;20159;-64
2021/12/02 02:11:41;;;;;;;3.90;0.80;;;6.10;99.90;;;;;;5094267;28;20174;-64
2021/12/02 02:14:09;;;;;;;3.47;1.20;;;6.10;99.90;;;;;;5093954;28;20163;-63
2021/12/02 02:16:36;;;;;;;1.33;0.90;;;6.10;99.90;;;;;;5094044;28;20159;-63
2021/12/02 02:19:03;;;;;;;3.57;1.00;;;6.10;99.90;;;;;;5093457;28;20264;-64
2021/12/02 02:21:31;;;;;;;1.77;1.23;;;6.10;99.90;;;;;;5093768;28;20232;-63
2021/12/02 02:23:58;;;;;;;0.73;0.73;;;6.10;99.90;;;;;;5093606;28;20171;-65
2021/12/02 02:26:32;;;;;;;1.17;1.03;;;6.00;99.90;;;;;;5093685;28;20159;-63
2021/12/02 02:28:58;;;;;;;2.43;1.20;;;6.00;99.90;;;;;;5093102;28;20533;-64
2021/12/02 02:31:25;;;;;;;1.60;1.10;;;6.00;99.90;;;;;;5093732;28;20186;-64
2021/12/02 02:33:52;;;;;;;2.73;1.17;;;6.00;99.90;;;;;;5094074;28;20234;-64
2021/12/02 02:36:20;;;;;;;3.40;1.40;;;6.00;99.90;;;;;;5093129;28;20506;-64
2021/12/02 02:39:02;;;;;;;2.93;1.00;;;6.00;99.90;;;;;;5093334;28;20270;-64
2021/12/02 02:41:30;;;;;;;2.70;0.93;;;6.00;99.90;;;;;;5093617;28;20186;-64
2021/12/02 02:43:59;;;;;;;4.63;1.00;;;5.90;99.90;;;;;;5093189;28;20484;-65
2021/12/02 02:46:25;;;;;;;3.47;1.10;;;6.00;99.90;;;;;;5093076;28;20177;-65
2021/12/02 02:48:52;;;;;;;0.70;0.70;;;5.90;99.90;;;;;;5098438;28;20169;-67
2021/12/02 02:51:18;;;;;;;1.90;1.00;;;5.90;99.90;;;;;;5104208;28;20201;-64
2021/12/02 02:53:47;;;;;;;0.90;0.90;;;5.90;99.90;;;;;;5103077;28;20533;-67
2021/12/02 02:56:17;;;;;;;1.10;1.00;;;5.90;99.90;;;;;;5099682;28;20159;-63
2021/12/02 03:09:01;;;;;;;1.87;1.10;;;5.90;99.90;;;;;;5092696;28;20626;-64
2021/12/02 03:11:37;;;;;;;0.80;0.80;;;5.90;99.90;;;;;;5097003;28;20531;-63
2021/12/02 03:14:10;;;;;;;3.20;1.00;;;5.90;99.90;;;;;;5097026;28;20213;-65
2021/12/02 03:16:45;;;;;;;3.33;1.10;;;5.90;99.90;;;;;;5096651;28;20211;-65
2021/12/02 03:19:21;;;;;;;1.07;0.80;;;5.90;99.90;;;;;;5096221;28;20155;-64
2021/12/02 03:21:46;;;;;;;2.57;1.03;;;5.90;99.90;;;;;;5096963;28;20259;-65
2021/12/02 03:24:12;;;;;;;3.07;1.57;;;6.00;99.90;;;;;;5096750;28;20670;-65
2021/12/02 03:26:38;;;;;;;1.70;1.03;;;6.00;99.90;;;;;;5096840;28;20166;-64
2021/12/02 03:29:05;;;;;;;1.80;1.00;;;6.00;99.90;;;;;;5096156;28;20167;-64
2021/12/02 03:31:31;;;;;;;2.93;1.33;;;6.00;99.90;;;;;;5096763;28;20505;-65
2021/12/02 03:33:58;;;;;;;1.20;0.90;;;6.00;99.90;;;;;;5096229;28;20226;-64
2021/12/02 03:36:23;;;;;;;2.73;1.27;;;6.00;99.90;;;;;;5096402;28;20172;-67
2021/12/02 03:38:50;;;;;;;4.40;1.43;;;6.10;99.90;;;;;;5095845;28;20160;-65
2021/12/02 03:41:16;;;;;;;1.40;0.90;;;6.00;99.90;;;;;;5096063;28;20230;-64
2021/12/02 03:43:44;;;;;;;3.17;0.87;;;6.10;99.90;;;;;;5096715;28;20265;-64
2021/12/02 03:46:12;;;;;;;1.37;1.10;;;6.00;99.90;;;;;;5096700;28;20167;-64
2021/12/02 03:48:38;;;;;;;1.73;1.00;;;6.00;99.90;;;;;;5096140;28;20164;-64
2021/12/02 03:51:06;;;;;;;1.73;1.00;;;6.00;99.90;;;;;;5096535;28;20535;-64
2021/12/02 03:53:31;;;;;;;1.07;1.03;;;6.00;99.90;;;;;;5096229;28;20595;-64
2021/12/02 03:55:57;;;;;;;7.47;1.03;;;5.90;99.90;;;;;;5096265;28;20167;-64
2021/12/02 03:58:23;;;;;;;1.57;1.00;;;5.90;99.90;;;;;;5096032;28;20171;-63
2021/12/02 04:00:49;;;;;;;1.73;0.90;;;5.90;99.90;;;;;;5087868;28;20193;-71
2021/12/02 04:03:14;;;;;;;1.97;0.97;;;6.00;99.90;;;;;;5084614;28;20196;-64
2021/12/02 04:05:40;;;;;;;2.07;1.17;;;5.80;99.90;;;;;;5090898;28;20262;-63
2021/12/02 04:08:06;;;;;;;1.70;1.10;;;5.80;99.90;;;;;;5112977;28;20237;-67
2021/12/02 04:10:33;;;;;;;1.40;1.07;;;5.70;99.90;;;;;;5105718;28;20179;-65
2021/12/02 04:13:08;;;;;;;1.73;1.17;;;5.70;99.90;;;;;;5105370;28;20273;-65
2021/12/02 04:15:37;;;;;;;2.17;0.90;;;5.60;99.90;;;;;;5105532;28;20182;-64
2021/12/02 04:18:03;;;;;;;2.13;1.40;;;5.60;99.90;;;;;;5078897;28;20185;-64
2021/12/02 04:20:28;;;;;;;2.83;1.00;;;5.70;99.90;;;;;;5092250;28;20186;-64
2021/12/02 04:22:56;;;;;;;1.83;1.07;;;5.70;99.90;;;;;;5082615;28;20621;-64
2021/12/02 04:25:22;;;;;;;4.97;1.20;;;5.70;99.90;;;;;;5091582;28;20182;-66
2021/12/02 04:27:50;;;;;;;3.33;0.93;;;5.70;99.90;;;;;;5100020;28;20191;-70
2021/12/02 04:30:21;;;;;;;5.23;1.47;;;5.80;99.90;;;;;;5093675;28;20202;-72
2021/12/02 04:32:47;;;;;;;3.50;1.17;;;5.70;99.90;;;;;;5083341;28;20260;-64
2021/12/02 04:35:14;;;;;;;1.30;1.20;;;5.70;99.90;;;;;;5090159;28;20633;-65
2021/12/02 04:37:40;;;;;;;3.87;1.10;;;5.70;99.90;;;;;;5097103;28;20175;-66
2021/12/02 04:40:07;;;;;;;3.60;1.90;;;5.80;99.90;;;;;;5097432;28;20223;-67
2021/12/02 04:42:33;;;;;;;3.17;1.10;;;5.80;99.90;;;;;;5085554;28;20203;-70
2021/12/02 04:44:59;;;;;;;2.77;1.00;;;5.70;99.90;;;;;;5106147;28;20186;-65
2021/12/02 04:47:25;;;;;;;1.60;1.03;;;5.70;99.90;;;;;;5089941;28;20542;-72
2021/12/02 04:49:50;;;;;;;2.47;1.30;;;5.70;99.90;;;;;;5098208;28;20179;-63
2021/12/02 04:52:16;;;;;;;3.60;1.10;;;5.80;99.90;;;;;;5097919;28;20261;-64
2021/12/02 04:54:42;;;;;;;1.27;0.90;;;5.70;99.90;;;;;;5093742;28;20178;-63
2021/12/02 04:57:08;;;;;;;2.97;1.03;;;5.70;99.90;;;;;;5099424;28;20188;-64
2021/12/02 04:59:34;;;;;;;5.30;1.27;;;5.70;99.90;;;;;;5109473;28;20179;-64
2021/12/02 05:01:59;;;;;;;3.97;1.30;;;5.70;99.90;;;;;;5106302;28;20599;-64
2021/12/02 05:04:26;;;;;;;1.37;1.07;;;5.70;99.90;;;;;;5108329;28;20188;-63
2021/12/02 05:06:52;;;;;;;8.40;1.20;;;5.70;99.90;;;;;;5099563;28;20252;-64
2021/12/02 05:09:18;;;;;;;2.10;1.30;;;5.60;99.90;;;;;;5089888;28;20596;-64
2021/12/02 05:11:44;;;;;;;2.57;1.40;;;5.60;99.90;;;;;;5100303;28;20276;-64
2021/12/02 05:14:10;;;;;;;4.57;1.33;;;5.60;99.90;;;;;;5094352;28;20180;-64
2021/12/02 05:16:36;;;;;;;3.97;1.20;;;5.70;99.90;;;;;;5096212;28;20645;-64
2021/12/02 05:19:03;;;;;;;3.03;1.80;;;5.70;99.90;;;;;;5095894;28;20233;-66
2021/12/02 05:21:28;;;;;;;6.07;1.77;;;5.80;99.90;;;;;;5096140;28;20193;-65
2021/12/02 05:23:54;;;;;;;5.93;1.47;;;5.70;99.90;;;;;;5088312;28;20186;-64
2021/12/02 05:26:24;;;;;;;2.87;1.20;;;5.80;99.90;;;;;;5082377;28;20166;-64
2021/12/02 05:28:51;;;;;;;1.90;1.20;;;5.80;99.90;;;;;;5076856;28;20162;-64
2021/12/02 05:31:17;;;;;;;1.47;0.90;;;5.80;99.90;;;;;;5105220;28;20182;-64
2021/12/02 05:33:43;;;;;;;1.87;1.10;;;5.70;99.90;;;;;;5098183;28;20242;-64
2021/12/02 05:36:09;;;;;;;2.73;1.00;;;5.60;99.90;;;;;;5073947;28;20645;-64
2021/12/02 05:38:35;;;;;;;3.33;1.40;;;5.50;99.90;;;;;;5070246;28;20179;-65
2021/12/02 05:41:01;;;;;;;3.03;1.20;;;5.50;99.90;;;;;;5073778;28;20167;-65
2021/12/02 05:43:27;;;;;;;6.53;1.10;;;5.50;99.90;;;;;;5073375;28;20495;-63
2021/12/02 05:45:53;;;;;;;7.03;1.53;;;5.40;99.90;;;;;;5074125;28;20209;-64
2021/12/02 05:48:18;;;;;;;3.50;1.23;;;5.50;99.90;;;;;;5073906;28;20609;-65
2021/12/02 05:50:44;;;;;;;3.20;1.30;;;5.50;99.90;;;;;;5102977;28;20525;-63
2021/12/02 05:53:10;;;;;;;1.43;1.03;;;5.50;99.90;;;;;;5108843;28;20625;-65
2021/12/02 05:55:36;;;;;;;4.30;1.20;;;5.30;99.90;;;;;;5114066;28;20184;-65
2021/12/02 05:58:02;;;;;;;4.80;1.43;;;5.40;99.90;;;;;;5093079;28;20335;-64
2021/12/02 06:00:28;;;;;;;2.03;1.00;;;5.40;99.90;;;;;;5090148;28;20516;-66
2021/12/02 06:02:53;;;;;;;2.97;1.30;;;5.30;99.90;;;;;;5094470;28;20202;-64
2021/12/02 06:05:22;;;;;;;3.60;1.30;;;5.20;99.90;;;;;;5093830;28;20595;-64
2021/12/02 06:07:53;;;;;;;5.80;1.53;;;5.20;99.90;;;;;;5094252;28;20162;-64
2021/12/02 06:10:20;;;;;;;5.07;1.70;;;5.20;99.90;;;;;;5094748;28;20159;-65
2021/12/02 06:12:46;;;;;;;2.43;1.33;;;5.20;99.90;;;;;;5095167;28;20267;-64
2021/12/02 06:15:12;;;;;;;2.43;0.90;;;5.20;99.90;;;;;;5094436;28;20547;-63
2021/12/02 06:17:38;;;;;;;4.40;1.40;;;5.10;99.90;;;;;;5093939;28;20645;-63
2021/12/02 06:20:06;;;;;;;2.90;1.20;;;5.00;99.90;;;;;;5093867;28;20233;-65
2021/12/02 06:22:33;;;;;;;4.50;1.97;;;5.10;99.90;;;;;;5093455;28;20209;-66
2021/12/02 06:27:36;;;;;;;6.83;2.67;;;5.00;99.90;;;;;;5093778;28;20185;-64
2021/12/02 06:30:02;;;;;;;6.03;2.13;;;4.90;99.90;;;;;;5093576;28;20241;-65
2021/12/02 06:32:27;;;;;;;3.67;1.30;;;5.00;99.90;;;;;;5093495;28;20251;-64
2021/12/02 06:34:53;;;;;;;3.70;2.13;;;5.10;99.90;;;;;;5096214;28;20207;-64
2021/12/02 06:37:19;;;;;;;3.97;1.10;;;5.00;99.90;;;;;;5097841;28;20612;-64
2021/12/02 06:39:44;;;;;;;4.70;1.70;;;5.00;99.90;;;;;;5097965;28;20170;-63
2021/12/02 06:42:11;;;;;;;4.27;2.30;;;5.10;99.90;;;;;;5097901;28;20220;-64
2021/12/02 06:44:37;;;;;;;3.20;1.67;;;5.10;99.90;;;;;;5092261;28;20184;-63
2021/12/02 06:47:03;;;;;;;4.37;1.90;;;5.10;99.90;;;;;;5096834;28;20229;-64
2021/12/02 06:49:30;;;;;;;4.30;1.97;;;4.90;99.90;;;;;;5097095;28;20482;-64
2021/12/02 06:51:56;;;;;;;3.87;1.70;;;5.00;99.90;;;;;;5086876;28;20185;-63
2021/12/02 06:54:22;;;;;;;3.80;1.77;;;5.00;99.90;;;;;;5077648;28;20177;-64
2021/12/02 06:56:47;;;;;;;3.27;1.67;;;4.90;99.90;;;;;;5076891;28;20282;-65
2021/12/02 06:59:13;;;;;;;2.33;1.13;;;4.90;99.90;;;;;;5077355;28;20162;-64
2021/12/02 07:01:39;;;;;;;2.97;1.30;;;4.90;99.90;;;;;;5076907;28;20205;-64
2021/12/02 07:04:05;;;;;;;5.03;1.37;;;4.90;99.90;;;;;;5076982;28;20212;-63
2021/12/02 07:06:30;;;;;;;3.97;1.63;;;4.90;99.90;;;;;;5077611;28;20203;-64
2021/12/02 07:08:56;;;;;;;3.70;1.27;;;5.00;99.90;;;;;;5077286;28;20258;-63
2021/12/02 07:11:22;;;;;;;6.30;1.30;;;4.90;99.90;;;;;;5077191;28;20200;-63
2021/12/02 07:13:49;;;;;;;7.13;1.40;;;4.90;99.90;;;;;;5076886;28;20185;-64
2021/12/02 07:16:15;;;;;;;4.93;1.40;;;4.90;99.90;;;;;;5076618;28;20611;-65
2021/12/02 07:18:47;;;;;;;1.53;1.10;;;4.90;99.90;;;;;;5077181;28;20213;-63
2021/12/02 07:21:13;;;;;;;2.37;1.10;;;5.00;99.90;;;;;;5077042;28;20240;-64
2021/12/02 07:23:38;;;;;;;2.37;1.13;;;4.90;99.90;;;;;;5076734;28;20168;-63
2021/12/02 07:26:04;;;;;;;2.90;1.10;;;5.00;99.90;;;;;;5076815;28;20170;-62
2021/12/02 07:28:35;;;;;;;1.37;1.20;;;5.00;99.90;;;;;;5076776;28;20161;-62
2021/12/02 07:31:02;;;;;;;3.40;1.50;;;5.10;99.90;;;;;;5076827;28;20176;-63
2021/12/02 07:33:29;;;;;;;5.90;1.37;;;5.00;99.90;;;;;;5076152;28;20366;-63
2021/12/02 07:35:55;;;;;;;3.40;1.27;;;4.90;99.90;;;;;;5076601;28;20191;-66
2021/12/02 07:38:21;;;;;;;5.27;1.37;;;4.80;99.90;;;;;;5076241;28;20524;-65
2021/12/02 07:40:47;;;;;;;5.60;1.50;;;4.80;99.90;;;;;;5076381;28;20165;-63
2021/12/02 07:43:13;;;;;;;4.13;1.60;;;4.80;99.90;;;;;;5076480;28;20513;-64
2021/12/02 07:45:38;;;;;;;7.20;1.67;;;4.80;99.90;;;;;;5075583;28;20175;-63
2021/12/02 07:48:06;;;;;;;7.03;1.40;;;4.80;99.90;;;;;;5075850;28;20155;-64
2021/12/02 07:50:34;;;;;;;4.07;1.90;;;4.80;99.90;;;;;;5076480;28;20187;-63
2021/12/02 07:53:02;;;;;;;4.87;1.47;;;4.80;99.90;;;;;;5083043;28;20616;-63
2021/12/02 07:55:30;;;;;;;3.07;1.13;;;4.80;99.90;;;;;;5087188;28;20167;-64
2021/12/02 07:57:56;;;;;;;1.97;1.47;;;5.00;99.90;;;;;;5084662;28;20196;-63
2021/12/02 08:00:24;;;;;;;3.10;1.60;;;4.90;99.90;;;;;;5079729;28;20181;-64
2021/12/02 08:02:52;;;;;;;3.37;1.50;;;4.90;99.90;;;;;;5074556;28;20212;-64
2021/12/02 08:05:21;;;;;;;6.17;1.37;;;5.00;99.90;;;;;;5075218;28;20165;-63
2021/12/02 08:07:47;;;;;;;1.77;1.40;;;5.00;99.90;;;;;;5075567;28;20251;-63
2021/12/02 08:10:14;;;;;;;4.67;2.10;;;5.00;99.90;;;;;;5074839;28;20193;-63
2021/12/02 08:12:46;;;;;;;2.10;1.30;;;5.10;99.90;;;;;;5075587;28;20165;-64
2021/12/02 08:15:12;;;;;;;2.53;1.47;;;5.10;99.90;;;;;;5075438;28;20224;-64
2021/12/02 08:17:38;;;;;;;5.03;1.40;;;5.10;99.90;;;;;;5075617;28;20200;-64
2021/12/02 08:20:05;;;;;;;4.40;1.50;;;5.20;99.90;;;;;;5075298;28;20201;-63
2021/12/02 08:22:32;;;;;;;3.93;1.43;;;5.20;99.90;;;;;;5074468;28;20205;-64
2021/12/02 08:24:58;;;;;;;2.33;1.37;;;5.30;99.90;;;;;;5075240;28;20163;-63
2021/12/02 08:27:24;;;;;;;9.97;1.73;;;5.30;99.90;;;;;;5075214;28;20156;-64
2021/12/02 08:29:50;;;;;;;6.73;1.60;;;5.30;99.90;;;;;;5074859;28;20168;-64
2021/12/02 08:32:16;;;;;;;5.13;1.60;;;5.40;99.90;;;;;;5075173;28;20223;-64
2021/12/02 08:34:42;;;;;;;5.03;1.70;;;5.50;99.90;;;;;;5075086;28;20283;-63
2021/12/02 08:37:09;;;;;;;6.90;1.83;;;5.50;99.90;;;;;;5075350;28;20160;-63
2021/12/02 08:39:35;;;;;;;3.33;1.30;;;5.50;99.90;;;;;;5075518;28;20304;-64
2021/12/02 08:42:02;;;;;;;2.40;1.33;;;5.60;99.90;;;;;;5073507;28;20282;-64
2021/12/02 08:44:31;;;;;;;6.10;1.20;;;5.60;99.90;;;;;;5074901;28;20169;-64
2021/12/02 08:46:56;;;;;;;2.67;1.17;;;5.60;99.90;;;;;;5075252;28;20178;-64
2021/12/02 08:49:23;;;;;;;7.10;1.50;;;5.60;99.90;;;;;;5075035;28;20602;-63
2021/12/02 08:51:49;;;;;;;3.77;1.43;;;5.60;99.90;;;;;;5076678;28;20202;-64
2021/12/02 08:54:15;;;;;;;3.80;1.40;;;5.60;99.90;;;;;;5078737;28;20177;-67
2021/12/02 08:56:42;;;;;;;2.87;1.50;;;5.60;99.90;;;;;;5095147;28;20162;-64
2021/12/02 08:59:08;;;;;;;8.43;1.67;;;5.70;99.90;;;;;;5093392;28;20150;-64
2021/12/02 09:01:34;;;;;;;3.97;1.13;;;5.70;99.90;;;;;;5088363;28;20209;-64
2021/12/02 09:04:02;;;;;;;3.47;1.43;;;5.80;99.90;;;;;;5091101;28;20226;-67
2021/12/02 09:06:29;;;;;;;6.13;1.33;;;5.70;99.90;;;;;;5093248;28;20162;-63
2021/12/02 09:08:57;;;;;;;3.57;1.17;;;5.80;99.90;;;;;;5090817;28;20164;-68
2021/12/02 09:11:23;;;;;;;4.93;1.10;;;5.80;99.90;;;;;;5087444;28;20164;-64
2021/12/02 09:13:48;;;;;;;3.90;1.37;;;5.70;99.90;;;;;;5094917;28;20173;-63
2021/12/02 09:16:14;;;;;;;4.03;1.30;;;5.70;99.90;;;;;;5069655;28;20162;-64
2021/12/02 09:18:41;;;;;;;4.07;1.37;;;5.70;99.90;;;;;;5092215;28;20172;-63
2021/12/02 09:21:07;;;;;;;1.80;0.90;;;5.70;99.90;;;;;;5092805;28;20159;-67
2021/12/02 09:23:33;;;;;;;5.10;1.43;;;5.90;99.90;;;;;;5082165;28;20176;-64
2021/12/02 09:25:59;;;;;;;4.40;1.20;;;5.80;99.90;;;;;;5074553;28;20635;-63
2021/12/02 09:28:26;;;;;;;1.70;1.00;;;5.90;99.90;;;;;;5075393;28;20165;-63
2021/12/02 09:30:52;;;;;;;1.47;1.10;;;5.90;99.90;;;;;;5075060;28;20251;-64
2021/12/02 09:33:18;;;;;;;3.20;1.30;;;5.80;99.90;;;;;;5073485;28;20663;-64
2021/12/02 09:35:44;;;;;;;2.50;0.97;;;5.90;99.90;;;;;;5085162;28;20182;-63
2021/12/02 09:38:10;;;;;;;3.43;1.30;;;6.00;99.90;;;;;;5078077;28;20164;-63
2021/12/02 09:40:37;;;;;;;4.30;1.60;;;6.00;99.90;;;;;;5057149;28;20627;-63
2021/12/02 09:43:03;;;;;;;2.70;0.93;;;6.00;99.90;;;;;;5074055;28;20209;-64
2021/12/02 09:45:29;;;;;;;4.87;1.37;;;6.00;99.90;;;;;;5056256;28;20228;-63
2021/12/02 09:47:55;;;;;;;3.50;1.10;;;6.10;99.90;;;;;;5073733;28;20163;-63
2021/12/02 09:50:32;;;;;;;5.47;0.93;;;6.10;99.90;;;;;;5056434;28;20178;-63
2021/12/02 09:53:06;;;;;;;2.43;1.10;;;6.10;99.90;;;;;;5074126;28;20195;-63
2021/12/02 09:55:43;;;;;;;3.53;1.80;;;6.10;99.90;;;;;;5073946;28;20171;-63
2021/12/02 09:58:16;;;;;;;1.77;1.10;;;6.10;99.90;;;;;;5074070;28;20495;-63
2021/12/02 10:00:47;;;;;;;4.40;1.30;;;6.10;99.90;;;;;;5073720;28;20588;-63
2021/12/02 10:03:25;;;;;;;4.43;1.00;;;6.00;99.90;;;;;;5073662;28;20245;-63
2021/12/02 10:06:10;;;;;;;3.70;1.43;;;6.00;99.90;;;;;;5073295;28;20506;-67
2021/12/02 10:08:52;;;;;;;2.80;0.90;;;6.00;99.90;;;;;;5073217;28;20599;-64
2021/12/02 10:11:37;;;;;;;5.33;1.70;;;6.00;99.90;;;;;;5073543;28;20233;-64
2021/12/02 10:14:36;;;;;;;2.60;1.20;;;5.90;99.90;;;;;;5073500;28;20267;-63
2021/12/02 10:17:21;;;;;;;4.20;1.50;;;6.10;99.90;;;;;;5072265;28;20187;-63
2021/12/02 10:23:19;;;;;;;2.47;1.20;;;6.20;99.90;;;;;;5083043;28;20221;-64
2021/12/02 10:25:56;;;;;;;1.97;1.00;;;6.30;99.90;;;;;;5085353;28;20238;-65
2021/12/02 10:28:23;;;;;;;6.03;1.43;;;6.50;99.90;;;;;;5083580;28;20177;-64
2021/12/02 10:30:56;;;;;;;3.83;0.83;;;6.50;99.90;;;;;;5074136;28;20207;-63
2021/12/02 10:33:36;;;;;;;7.37;1.23;;;6.50;99.90;;;;;;5072902;28;20306;-63
2021/12/02 10:36:05;;;;;;;2.33;1.00;;;6.40;99.90;;;;;;5073442;28;20173;-63
2021/12/02 10:38:33;;;;;;;2.00;1.27;;;6.40;99.90;;;;;;5073576;28;20273;-68
2021/12/02 10:41:01;;;;;;;4.83;1.10;;;6.60;99.90;;;;;;5072970;28;20149;-63
2021/12/02 10:43:27;;;;;;;3.53;1.37;;;6.60;99.90;;;;;;5072989;28;20199;-63
2021/12/02 10:46:12;;;;;;;2.87;1.07;;;6.50;99.90;;;;;;5073300;28;20160;-62
2021/12/02 10:48:47;;;;;;;2.67;0.83;;;6.30;99.90;;;;;;5073690;28;20187;-64
2021/12/02 10:51:37;;;;;;;5.67;1.43;;;6.20;99.90;;;;;;5072684;28;20160;-62
2021/12/02 10:54:13;;;;;;;3.23;1.37;;;6.00;99.90;;;;;;5075597;28;20523;-63
2021/12/02 10:56:39;;;;;;;8.97;1.40;;;5.90;99.90;;;;;;5092748;28;20154;-64
2021/12/02 10:59:40;;;;;;;4.20;1.17;;;5.80;99.90;;;;;;5092685;28;20211;-62
2021/12/02 11:02:29;;;;;;;5.27;1.63;;;5.70;99.90;;;;;;5092545;28;20288;-63
2021/12/02 11:05:00;;;;;;;5.77;1.53;;;5.80;99.90;;;;;;5074873;28;20180;-63
2021/12/02 11:07:30;;;;;;;6.93;1.87;;;5.90;99.90;;;;;;5074800;28;20279;-63
2021/12/02 11:09:58;;;;;;;7.10;1.70;;;6.10;99.90;;;;;;5092382;28;20227;-63
2021/12/02 11:12:29;;;;;;;6.23;1.60;;;6.10;99.90;;;;;;5092699;28;20579;-62
2021/12/02 11:15:04;;;;;;;5.23;1.47;;;6.20;99.90;;;;;;5091866;28;20173;-63
2021/12/02 11:17:33;;;;;;;2.03;0.97;;;6.00;99.90;;;;;;5092655;28;20536;-63
2021/12/02 11:20:04;;;;;;;7.50;1.37;;;6.00;99.90;;;;;;5089997;28;20259;-62
2021/12/02 11:22:30;;;;;;;2.40;1.23;;;5.90;99.90;;;;;;5095283;28;20228;-63
2021/12/02 11:24:58;;;;;;;1.53;1.00;;;6.00;99.90;;;;;;5096857;28;20259;-63
2021/12/02 11:27:33;;;;;;;4.93;1.13;;;6.00;99.90;;;;;;5096001;28;20163;-64
2021/12/02 11:30:07;;;;;;;6.23;1.33;;;5.90;99.90;;;;;;5077665;28;20166;-64
2021/12/02 11:32:40;;;;;;;5.27;1.40;;;5.90;99.90;;;;;;5096159;28;20218;-63
2021/12/02 11:35:12;;;;;;;3.17;1.20;;;6.00;99.90;;;;;;5095815;28;20639;-64
2021/12/02 11:37:40;;;;;;;4.80;1.73;;;5.90;99.90;;;;;;5096428;28;20167;-63
2021/12/02 11:40:09;;;;;;;5.43;1.33;;;6.00;99.90;;;;;;5095984;28;20183;-64
2021/12/02 11:42:39;;;;;;;4.00;1.50;;;6.00;99.90;;;;;;5095588;28;20669;-66
2021/12/02 11:45:07;;;;;;;5.07;1.50;;;6.00;99.90;;;;;;5096241;28;20166;-63
2021/12/02 11:47:34;;;;;;;2.60;1.50;;;6.30;99.90;;;;;;5095594;28;20182;-63
2021/12/02 11:49:59;;;;;;;3.50;1.47;;;6.40;99.90;;;;;;5095900;28;20163;-63
2021/12/02 11:52:25;;;;;;;2.57;1.60;;;6.30;99.90;;;;;;5096759;28;20168;-64
2021/12/02 11:54:52;;;;;;;5.93;1.70;;;6.50;99.90;;;;;;5096095;28;20603;-63
2021/12/02 11:57:19;;;;;;;3.40;1.40;;;6.60;99.90;;;;;;5095670;28;20161;-62
2021/12/02 11:59:44;;;;;;;4.73;1.10;;;6.70;99.90;;;;;;5095794;28;20211;-63
2021/12/02 12:02:15;;;;;;;2.37;1.20;;;6.80;99.90;;;;;;5095833;28;20194;-63
2021/12/02 12:04:41;;;;;;;1.13;1.03;;;6.90;99.90;;;;;;5095608;28;20159;-63
2021/12/02 12:07:13;;;;;;;3.40;1.00;;;6.90;99.90;;;;;;5095400;28;20166;-63
2021/12/02 12:09:39;;;;;;;5.17;1.20;;;7.00;99.90;;;;;;5095649;28;20496;-63
2021/12/02 12:12:05;;;;;;;3.40;0.93;;;6.80;99.90;;;;;;5095767;28;20499;-63
2021/12/02 12:14:35;;;;;;;3.03;1.37;;;6.90;99.90;;;;;;5095655;28;20173;-63
2021/12/02 12:17:20;;;;;;;4.13;1.00;;;6.80;99.90;;;;;;5094974;28;20168;-63
2021/12/02 12:19:50;;;;;;;2.97;1.20;;;6.80;99.90;;;;;;5095541;28;20166;-63
2021/12/02 12:22:32;;;;;;;3.47;1.20;;;6.80;99.90;;;;;;5095398;28;20224;-63
2021/12/02 12:25:06;;;;;;;2.03;1.20;;;6.80;99.90;;;;;;5095392;28;20166;-63
2021/12/02 12:27:34;;;;;;;2.33;1.10;;;6.80;99.90;;;;;;5094888;28;20172;-63
2021/12/02 12:30:03;;;;;;;3.50;1.03;;;6.80;99.90;;;;;;5095374;28;20165;-62
2021/12/02 12:35:18;;;;;;;5.53;1.30;;;6.90;99.90;;;;;;5095249;28;20159;-63
2021/12/02 12:40:37;;;;;;;9.87;1.63;;;6.80;99.90;;;;;;5095097;28;20159;-63
2021/12/02 12:43:03;;;;;;;2.27;1.17;;;6.60;99.90;;;;;;5094431;28;20225;-64
2021/12/02 12:45:39;;;;;;;2.23;1.23;;;6.60;99.90;;;;;;5094281;28;20175;-63
2021/12/02 12:48:08;;;;;;;6.03;2.10;;;6.80;99.90;;;;;;5094435;28;20168;-63
2021/12/02 12:50:37;;;;;;;5.20;1.27;;;6.70;99.90;;;;;;5094964;28;20167;-63
2021/12/02 12:53:06;;;;;;;2.23;1.10;;;6.60;99.90;;;;;;5096032;28;20171;-63
2021/12/02 12:55:42;;;;;;;1.73;1.00;;;6.50;99.90;;;;;;5102608;28;20185;-64
2021/12/02 12:58:17;;;;;;;1.57;1.00;;;6.40;99.90;;;;;;5101013;28;20219;-64
2021/12/02 13:00:44;;;;;;;4.70;1.47;;;6.50;99.90;;;;;;5099182;28;20714;-63
2021/12/02 13:03:16;;;;;;;4.80;1.43;;;6.40;99.90;;;;;;5095830;28;20192;-63
2021/12/02 13:05:55;;;;;;;4.80;1.37;;;6.40;99.90;;;;;;5094156;28;20313;-65
2021/12/02 13:08:37;;;;;;;4.40;1.80;;;6.40;99.90;;;;;;5094234;28;20167;-64
2021/12/02 13:11:12;;;;;;;3.57;1.90;;;6.40;99.90;;;;;;5093708;28;20199;-64
2021/12/02 13:13:40;;;;;;;6.00;2.07;;;6.40;99.90;;;;;;5094139;28;20490;-63
2021/12/02 13:16:20;;;;;;;7.93;2.60;;;6.40;99.90;;;;;;5093718;28;20161;-64
2021/12/02 13:19:09;;;;;;;5.10;2.90;;;6.40;99.90;;;;;;5094204;28;20173;-63
2021/12/02 13:21:35;;;;;;;2.00;1.40;;;6.40;99.90;;;;;;5094017;28;20199;-63
2021/12/02 13:24:12;;;;;;;11.37;4.60;;;6.10;99.90;;;;;;5094305;28;20175;-64
2021/12/02 13:26:46;;;;;;;4.10;1.80;;;6.10;99.90;;;;;;5093984;28;20613;-63
2021/12/02 13:29:12;;;;;;;11.40;2.83;;;6.10;99.90;;;;;;5088164;28;20582;-63